Time;durP1;ratioP1;P1;durP2;ratioP2;P2;SDS_P1;SDS_P2;PMS_P1;PMS_P2;Temp;Humidity;BMP_temperature;BMP_pressure;BME280_temperature;BME280_humidity;BME280_pressure;Samples;Min_cycle;Max_cycle;Signal;HPM_P1;HPM_P2
2024/01/05 00:01:43;;;;;;;11.15;5.00;;;2.00;99.90;;;;;;5113273;28;20039;-85
2024/01/05 00:04:09;;;;;;;9.73;4.90;;;2.00;99.90;;;;;;5112408;28;20047;-85
2024/01/05 00:06:38;;;;;;;9.48;5.13;;;1.90;99.90;;;;;;5073822;28;20449;-85
2024/01/05 00:09:04;;;;;;;11.30;5.60;;;2.70;99.90;;;;;;5113083;28;20484;-85
2024/01/05 00:11:29;;;;;;;7.80;5.13;;;2.50;99.90;;;;;;5094934;28;20058;-85
2024/01/05 00:13:55;;;;;;;14.10;5.93;;;1.90;99.90;;;;;;5093545;28;20044;-84
2024/01/05 00:16:23;;;;;;;13.00;5.90;;;2.00;99.90;;;;;;5101355;28;20097;-84
2024/01/05 00:18:49;;;;;;;16.92;6.55;;;2.10;99.90;;;;;;5071185;28;20080;-84
2024/01/05 00:21:21;;;;;;;7.53;4.78;;;2.10;99.90;;;;;;5091617;28;20133;-85
2024/01/05 00:23:48;;;;;;;10.13;5.00;;;2.00;99.90;;;;;;5093250;28;20040;-84
2024/01/05 00:26:14;;;;;;;9.65;5.43;;;2.00;99.90;;;;;;5092966;28;20051;-85
2024/01/05 00:28:40;;;;;;;8.52;4.90;;;2.40;99.90;;;;;;5058181;28;20040;-84
2024/01/05 00:31:08;;;;;;;7.13;4.38;;;2.00;99.90;;;;;;5074707;28;20097;-83
2024/01/05 00:33:34;;;;;;;7.65;4.82;;;2.40;99.90;;;;;;5076268;28;20078;-85
2024/01/05 00:36:02;;;;;;;12.77;5.30;;;1.90;99.90;;;;;;5074895;28;20127;-84
2024/01/05 00:38:28;;;;;;;7.90;4.97;;;1.90;99.90;;;;;;5074903;28;20047;-84
2024/01/05 00:40:53;;;;;;;12.20;5.43;;;2.80;99.90;;;;;;5089185;28;20044;-85
2024/01/05 00:43:19;;;;;;;12.80;6.22;;;2.40;99.90;;;;;;5113093;28;20071;-84
2024/01/05 00:45:45;;;;;;;10.77;5.88;;;2.10;99.90;;;;;;5095042;28;20380;-84
2024/01/05 00:48:10;;;;;;;12.63;6.20;;;1.80;99.90;;;;;;5085879;28;20108;-84
2024/01/05 00:50:36;;;;;;;11.13;6.50;;;1.90;99.90;;;;;;5058084;28;20043;-85
2024/01/05 00:53:02;;;;;;;11.43;5.68;;;2.60;99.90;;;;;;5074693;28;20468;-85
2024/01/05 00:55:27;;;;;;;13.70;6.18;;;1.80;99.90;;;;;;5074410;28;20093;-85
2024/01/05 00:57:53;;;;;;;11.98;5.65;;;2.00;99.90;;;;;;5058371;28;20036;-85
2024/01/05 01:00:19;;;;;;;11.15;5.88;;;1.80;99.90;;;;;;5092330;28;20036;-86
2024/01/05 01:02:44;;;;;;;13.55;6.40;;;1.80;99.90;;;;;;5078679;28;20448;-84
2024/01/05 01:05:10;;;;;;;12.27;6.40;;;2.70;99.90;;;;;;5078631;28;20043;-84
2024/01/05 01:07:37;;;;;;;9.85;6.00;;;1.70;99.90;;;;;;5078311;28;20055;-85
2024/01/05 01:10:03;;;;;;;10.60;5.93;;;2.40;99.90;;;;;;5087747;28;20055;-85
2024/01/05 01:12:29;;;;;;;11.90;6.13;;;1.80;99.90;;;;;;5081797;28;20055;-85
2024/01/05 01:14:55;;;;;;;11.65;6.00;;;3.20;99.90;;;;;;5101018;28;20382;-85
2024/01/05 01:17:22;;;;;;;11.85;6.50;;;2.50;99.90;;;;;;5078690;28;20039;-85
2024/01/05 01:19:48;;;;;;;12.07;6.25;;;2.30;99.90;;;;;;5078159;28;20040;-84
2024/01/05 01:22:14;;;;;;;12.85;6.32;;;1.70;99.90;;;;;;5096407;28;20075;-85
2024/01/05 01:24:41;;;;;;;14.05;6.30;;;1.70;99.90;;;;;;5078139;28;20102;-85
2024/01/05 01:27:07;;;;;;;12.63;6.00;;;1.70;99.90;;;;;;5078103;28;20450;-84
2024/01/05 01:29:33;;;;;;;12.45;6.90;;;2.30;99.90;;;;;;5099371;28;20047;-85
2024/01/05 01:31:58;;;;;;;14.85;6.60;;;2.20;99.90;;;;;;5078140;28;20040;-85
2024/01/05 01:34:24;;;;;;;14.13;6.65;;;1.80;99.90;;;;;;5078509;28;20082;-84
2024/01/05 01:36:51;;;;;;;11.57;5.93;;;1.80;99.90;;;;;;5077239;28;20039;-84
2024/01/05 01:39:17;;;;;;;10.77;6.13;;;2.20;99.90;;;;;;5078145;28;20477;-84
2024/01/05 01:41:43;;;;;;;13.73;6.80;;;0.60;99.90;;;;;;5078057;28;20080;-84
2024/01/05 01:44:08;;;;;;;13.00;6.90;;;2.50;99.90;;;;;;5095830;28;20032;-84
2024/01/05 01:46:38;;;;;;;15.43;6.43;;;2.60;99.90;;;;;;5077759;28;20138;-84
2024/01/05 01:49:05;;;;;;;12.57;6.65;;;1.70;99.90;;;;;;5095815;28;20064;-85
2024/01/05 01:51:32;;;;;;;15.32;6.82;;;1.60;99.90;;;;;;5077558;28;20048;-84
2024/01/05 01:54:04;;;;;;;14.15;6.32;;;2.00;99.90;;;;;;5077671;28;20119;-85
2024/01/05 01:56:31;;;;;;;14.02;7.10;;;1.70;99.90;;;;;;5077635;28;20115;-84
2024/01/05 01:58:56;;;;;;;13.77;6.50;;;2.30;99.90;;;;;;5077711;28;20102;-85
2024/01/05 02:01:22;;;;;;;14.63;7.20;;;1.80;99.90;;;;;;5077512;28;20497;-85
2024/01/05 02:03:48;;;;;;;14.77;6.25;;;1.70;99.90;;;;;;5077161;28;20044;-84
2024/01/05 02:06:14;;;;;;;13.10;6.80;;;1.70;99.90;;;;;;5077164;28;20112;-84
2024/01/05 02:08:40;;;;;;;15.07;7.47;;;2.00;99.90;;;;;;5099772;28;20032;-84
2024/01/05 02:11:06;;;;;;;15.23;6.90;;;1.70;99.90;;;;;;5115507;28;20086;-84
2024/01/05 02:13:33;;;;;;;13.40;6.30;;;1.70;99.90;;;;;;5096892;28;20055;-84
2024/01/05 02:15:59;;;;;;;13.00;6.82;;;2.20;99.90;;;;;;5080458;28;20046;-84
2024/01/05 02:18:24;;;;;;;20.13;7.82;;;1.70;99.90;;;;;;5111064;28;20044;-86
2024/01/05 02:20:50;;;;;;;16.95;7.07;;;1.70;99.90;;;;;;5094991;28;20040;-84
2024/01/05 02:23:26;;;;;;;11.32;6.22;;;1.70;99.90;;;;;;5095412;28;20055;-84
2024/01/05 02:25:53;;;;;;;16.55;7.28;;;2.10;99.90;;;;;;5076612;28;20043;-83
2024/01/05 02:28:19;;;;;;;15.10;6.63;;;2.40;99.90;;;;;;5094822;28;20109;-85
2024/01/05 02:30:45;;;;;;;14.60;6.85;;;2.40;99.90;;;;;;5076863;28;20044;-84
2024/01/05 02:33:11;;;;;;;16.70;7.10;;;1.70;99.90;;;;;;5061025;28;20036;-84
2024/01/05 02:35:37;;;;;;;15.88;6.90;;;1.70;99.90;;;;;;5076724;28;20036;-85
2024/01/05 02:38:03;;;;;;;19.33;7.15;;;1.90;99.90;;;;;;5076929;28;20055;-85
2024/01/05 02:40:28;;;;;;;18.38;7.22;;;1.70;99.90;;;;;;5094592;28;20040;-84
2024/01/05 02:42:54;;;;;;;14.95;7.45;;;2.20;99.90;;;;;;5094794;28;20492;-85
2024/01/05 02:45:24;;;;;;;12.63;6.78;;;2.30;99.90;;;;;;5076588;28;20044;-84
2024/01/05 02:47:50;;;;;;;15.95;7.43;;;1.70;99.90;;;;;;5093893;28;20378;-85
2024/01/05 02:50:17;;;;;;;15.77;7.10;;;1.70;99.90;;;;;;5070293;28;20036;-85
2024/01/05 02:52:42;;;;;;;18.23;7.43;;;2.10;99.90;;;;;;5075839;28;20181;-84
2024/01/05 02:55:10;;;;;;;15.73;7.45;;;2.10;99.90;;;;;;5059626;28;20078;-85
2024/01/05 02:57:36;;;;;;;12.68;6.25;;;2.30;99.90;;;;;;5094410;28;20058;-84
2024/01/05 03:00:03;;;;;;;16.98;7.50;;;2.30;99.90;;;;;;5075639;28;20059;-84
2024/01/05 03:02:29;;;;;;;15.98;7.07;;;1.70;99.90;;;;;;5094135;28;20044;-85
2024/01/05 03:04:54;;;;;;;15.55;7.45;;;1.80;99.90;;;;;;5094039;28;20067;-84
2024/01/05 03:07:20;;;;;;;16.83;7.07;;;1.90;99.90;;;;;;5076557;28;20127;-84
2024/01/05 03:09:46;;;;;;;21.75;8.20;;;2.50;99.90;;;;;;5094379;28;20491;-84
2024/01/05 03:12:11;;;;;;;20.83;7.25;;;1.60;99.90;;;;;;5104835;28;20538;-85
2024/01/05 03:14:37;;;;;;;17.35;7.15;;;1.70;99.90;;;;;;5078414;28;20455;-84
2024/01/05 03:17:03;;;;;;;19.10;7.35;;;1.60;99.90;;;;;;5114420;28;20031;-84
2024/01/05 03:19:28;;;;;;;14.30;6.85;;;1.60;99.90;;;;;;5114423;28;20051;-85
2024/01/05 03:21:54;;;;;;;18.02;6.93;;;1.70;99.90;;;;;;5080802;28;20036;-84
2024/01/05 03:24:20;;;;;;;22.30;7.90;;;2.10;99.90;;;;;;5059469;28;20075;-84
2024/01/05 03:26:46;;;;;;;14.38;7.25;;;1.70;99.90;;;;;;5091345;28;20043;-84
2024/01/05 03:29:12;;;;;;;21.83;8.40;;;2.90;99.90;;;;;;5076518;28;20075;-84
2024/01/05 03:31:37;;;;;;;17.88;8.02;;;1.60;99.90;;;;;;5096136;28;20047;-83
2024/01/05 03:34:04;;;;;;;18.67;8.23;;;1.70;99.90;;;;;;5112853;28;20396;-84
2024/01/05 03:36:29;;;;;;;16.17;7.50;;;1.70;99.90;;;;;;5095947;28;20186;-85
2024/01/05 03:38:55;;;;;;;16.45;7.50;;;2.40;99.90;;;;;;5095626;28;20484;-85
2024/01/05 03:41:21;;;;;;;18.30;7.63;;;1.80;99.90;;;;;;5095759;28;20047;-84
2024/01/05 03:43:48;;;;;;;16.70;7.70;;;2.20;99.90;;;;;;5095777;28;20073;-84
2024/01/05 03:46:13;;;;;;;19.58;8.23;;;1.70;99.90;;;;;;5082755;28;20059;-84
2024/01/05 03:48:39;;;;;;;17.58;8.13;;;2.30;99.90;;;;;;5076128;28;20052;-84
2024/01/05 03:51:05;;;;;;;17.23;7.72;;;2.40;99.90;;;;;;5108297;28;20051;-85
2024/01/05 03:53:31;;;;;;;16.73;8.07;;;1.90;99.90;;;;;;5112451;28;20040;-84
2024/01/05 03:56:00;;;;;;;17.67;7.15;;;1.70;99.90;;;;;;5082699;28;20036;-84
2024/01/05 03:58:28;;;;;;;18.27;8.35;;;1.10;99.90;;;;;;5074999;28;20051;-85
2024/01/05 04:00:54;;;;;;;18.80;7.85;;;2.00;99.90;;;;;;5075112;28;20059;-84
2024/01/05 04:03:19;;;;;;;20.95;8.38;;;1.90;99.90;;;;;;5084808;28;20518;-85
2024/01/05 04:05:46;;;;;;;22.42;8.45;;;1.70;99.90;;;;;;5093245;28;20039;-84
2024/01/05 04:08:12;;;;;;;17.85;7.68;;;1.70;99.90;;;;;;5095901;28;20443;-84
2024/01/05 04:10:38;;;;;;;18.92;8.30;;;2.30;99.90;;;;;;5113085;28;20123;-85
2024/01/05 04:13:04;;;;;;;20.73;8.50;;;2.40;99.90;;;;;;5113484;28;20426;-84
2024/01/05 04:15:35;;;;;;;15.55;7.47;;;1.70;99.90;;;;;;5078392;28;20092;-84
2024/01/05 04:18:01;;;;;;;17.73;8.23;;;1.70;99.90;;;;;;5090408;28;20496;-85
2024/01/05 04:20:26;;;;;;;17.33;8.45;;;2.50;99.90;;;;;;5094277;28;20047;-85
2024/01/05 04:22:52;;;;;;;19.65;8.38;;;2.20;99.90;;;;;;5093182;28;20095;-85
2024/01/05 04:25:18;;;;;;;17.15;8.00;;;1.80;99.90;;;;;;5075044;28;20390;-85
2024/01/05 04:27:44;;;;;;;17.67;8.18;;;1.30;99.90;;;;;;5093068;28;20036;-84
2024/01/05 04:30:10;;;;;;;14.00;7.03;;;1.30;99.90;;;;;;5092742;28;20489;-85
2024/01/05 04:32:37;;;;;;;15.18;7.75;;;1.80;99.90;;;;;;5073537;28;20040;-85
2024/01/05 04:35:03;;;;;;;20.02;7.93;;;2.20;99.90;;;;;;5074818;28;20040;-84
2024/01/05 04:37:29;;;;;;;18.98;7.45;;;1.80;99.90;;;;;;5077706;28;20193;-84
2024/01/05 04:39:54;;;;;;;17.40;7.57;;;1.90;99.90;;;;;;5078959;28;20440;-84
2024/01/05 04:42:20;;;;;;;15.45;7.15;;;2.20;99.90;;;;;;5062841;28;20408;-84
2024/01/05 04:44:46;;;;;;;20.85;8.13;;;2.40;99.90;;;;;;5078588;28;20047;-84
2024/01/05 04:47:12;;;;;;;16.90;7.68;;;1.80;99.90;;;;;;5097059;28;20040;-84
2024/01/05 04:49:37;;;;;;;16.23;8.55;;;2.50;99.90;;;;;;5062451;28;20369;-84
2024/01/05 04:52:03;;;;;;;22.83;7.40;;;2.40;99.90;;;;;;5106878;28;20092;-84
2024/01/05 04:54:29;;;;;;;16.25;7.20;;;1.90;99.90;;;;;;5099002;28;20191;-84
2024/01/05 04:56:55;;;;;;;18.10;7.28;;;1.90;99.90;;;;;;5116988;28;20499;-84
2024/01/05 04:59:22;;;;;;;13.85;6.47;;;1.90;99.90;;;;;;5094327;28;20036;-84
2024/01/05 05:01:47;;;;;;;17.90;7.05;;;2.20;99.90;;;;;;5079704;28;20051;-84
2024/01/05 05:04:14;;;;;;;17.52;7.57;;;1.90;99.90;;;;;;5077729;28;20044;-84
2024/01/05 05:06:40;;;;;;;15.82;7.32;;;2.40;99.90;;;;;;5096236;28;21008;-85
2024/01/05 05:09:06;;;;;;;12.90;6.38;;;2.30;99.90;;;;;;5096619;28;20048;-84
2024/01/05 05:11:31;;;;;;;16.52;7.30;;;1.90;99.90;;;;;;5102323;28;20393;-84
2024/01/05 05:13:57;;;;;;;16.02;7.00;;;1.90;99.90;;;;;;5093951;28;20378;-83
2024/01/05 05:16:23;;;;;;;13.57;6.93;;;1.90;99.90;;;;;;5096353;28;20051;-84
2024/01/05 05:18:49;;;;;;;15.18;7.65;;;3.10;99.90;;;;;;5078547;28;20558;-83
2024/01/05 05:21:15;;;;;;;16.75;7.10;;;1.90;99.90;;;;;;5078203;28;20567;-84
2024/01/05 05:23:41;;;;;;;17.30;7.82;;;1.90;99.90;;;;;;5080636;28;20067;-83
2024/01/05 05:26:07;;;;;;;18.08;7.10;;;2.30;99.90;;;;;;5103788;27;20085;-84
2024/01/05 05:28:33;;;;;;;16.25;7.55;;;1.90;99.90;;;;;;5098395;28;20055;-84
2024/01/05 05:30:59;;;;;;;20.00;7.38;;;2.20;99.90;;;;;;5097387;28;20043;-83
2024/01/05 05:33:25;;;;;;;17.65;7.60;;;2.60;99.90;;;;;;5116293;28;20043;-83
2024/01/05 05:35:51;;;;;;;19.98;7.70;;;1.50;99.90;;;;;;5113195;27;20097;-84
2024/01/05 05:38:16;;;;;;;15.93;7.15;;;1.90;99.90;;;;;;5077398;28;20055;-83
2024/01/05 05:40:42;;;;;;;17.45;7.00;;;2.80;99.90;;;;;;5079858;28;20093;-83
2024/01/05 05:43:07;;;;;;;16.27;6.93;;;3.00;99.90;;;;;;5098138;28;20050;-84
2024/01/05 05:45:33;;;;;;;15.25;7.40;;;2.80;99.90;;;;;;5097614;28;20035;-83
2024/01/05 05:47:59;;;;;;;14.95;6.88;;;2.70;99.90;;;;;;5097018;28;20048;-85
2024/01/05 05:50:25;;;;;;;14.48;7.05;;;2.80;99.90;;;;;;5060914;28;20481;-84
2024/01/05 05:52:51;;;;;;;16.25;7.28;;;2.00;99.90;;;;;;5095859;28;20399;-84
2024/01/05 05:55:17;;;;;;;20.27;8.32;;;2.20;99.90;;;;;;5095870;28;20036;-85
2024/01/05 05:57:43;;;;;;;15.55;7.22;;;2.40;99.90;;;;;;5094312;28;20044;-84
2024/01/05 06:00:10;;;;;;;20.55;8.48;;;2.20;99.90;;;;;;5077810;28;20051;-83
2024/01/05 06:02:37;;;;;;;16.83;8.15;;;2.10;99.90;;;;;;5060588;28;20048;-84
2024/01/05 06:05:04;;;;;;;17.50;7.47;;;2.10;99.90;;;;;;5115115;28;20487;-84
2024/01/05 06:07:30;;;;;;;15.82;8.93;;;2.10;99.90;;;;;;5115698;28;20048;-84
2024/01/05 06:09:57;;;;;;;18.70;8.57;;;2.10;99.90;;;;;;5115868;28;20050;-84
2024/01/05 06:12:23;;;;;;;17.30;8.43;;;2.60;99.90;;;;;;5097268;28;20064;-84
2024/01/05 06:14:49;;;;;;;17.20;8.10;;;2.20;99.90;;;;;;5115305;28;20399;-83
2024/01/05 06:17:14;;;;;;;17.08;8.70;;;2.10;99.90;;;;;;5115635;28;20047;-84
2024/01/05 06:19:40;;;;;;;20.27;8.98;;;2.10;99.90;;;;;;5109724;28;20043;-84
2024/01/05 06:22:06;;;;;;;14.65;7.53;;;2.80;99.90;;;;;;5093993;28;20056;-85
2024/01/05 06:24:31;;;;;;;17.08;8.50;;;3.30;99.90;;;;;;5094108;28;20119;-84
2024/01/05 06:26:57;;;;;;;16.52;8.07;;;3.00;99.90;;;;;;5094209;28;20051;-84
2024/01/05 06:29:23;;;;;;;15.60;7.68;;;2.80;99.90;;;;;;5094897;28;20049;-84
2024/01/05 06:31:48;;;;;;;12.55;7.57;;;2.10;99.90;;;;;;5097236;28;20078;-84
2024/01/05 06:34:14;;;;;;;15.38;7.63;;;1.60;99.90;;;;;;5097083;28;20039;-83
2024/01/05 06:36:40;;;;;;;13.70;7.80;;;2.70;99.90;;;;;;5096436;28;20396;-84
2024/01/05 06:39:05;;;;;;;15.43;7.95;;;2.10;99.90;;;;;;5096853;28;20040;-84
2024/01/05 06:41:31;;;;;;;17.95;8.43;;;2.10;99.90;;;;;;5096858;28;20081;-84
2024/01/05 06:43:57;;;;;;;15.40;8.90;;;2.20;99.90;;;;;;5096555;28;20130;-84
2024/01/05 06:46:23;;;;;;;17.13;8.32;;;3.40;99.90;;;;;;5080133;28;20040;-83
2024/01/05 06:48:49;;;;;;;16.75;9.02;;;3.10;99.90;;;;;;5114606;28;20048;-84
2024/01/05 06:51:15;;;;;;;17.00;8.25;;;2.20;99.90;;;;;;5096467;28;20139;-83
2024/01/05 06:53:40;;;;;;;16.52;7.72;;;2.50;99.90;;;;;;5076070;28;20047;-84
2024/01/05 06:56:08;;;;;;;14.25;7.38;;;3.30;99.90;;;;;;5093441;28;20444;-84
2024/01/05 06:58:34;;;;;;;14.38;7.75;;;2.90;99.90;;;;;;5095832;28;20052;-83
2024/01/05 07:01:01;;;;;;;10.27;6.05;;;2.80;99.90;;;;;;5096247;28;20050;-85
2024/01/05 07:03:27;;;;;;;16.02;6.80;;;2.90;99.90;;;;;;5096562;28;20047;-84
2024/01/05 07:05:53;;;;;;;14.27;7.22;;;2.20;99.90;;;;;;5079447;28;20047;-84
2024/01/05 07:08:18;;;;;;;13.52;7.15;;;2.80;99.90;;;;;;5114636;28;20128;-85
2024/01/05 07:10:44;;;;;;;15.52;7.28;;;2.00;99.90;;;;;;5096332;28;20040;-83
2024/01/05 07:13:10;;;;;;;14.57;6.68;;;3.20;99.90;;;;;;5109228;28;20047;-84
2024/01/05 07:15:35;;;;;;;13.23;6.43;;;2.30;99.90;;;;;;5098563;28;20507;-84
2024/01/05 07:18:01;;;;;;;13.98;6.95;;;2.70;99.90;;;;;;5107437;27;20046;-84
2024/01/05 07:20:27;;;;;;;14.60;7.10;;;2.20;99.90;;;;;;5116868;27;20039;-84
2024/01/05 07:22:53;;;;;;;11.07;5.85;;;2.20;99.90;;;;;;5095583;28;20142;-84
2024/01/05 07:25:18;;;;;;;13.70;6.63;;;3.00;99.90;;;;;;5118462;27;20054;-84
2024/01/05 07:27:44;;;;;;;13.38;6.78;;;2.30;99.90;;;;;;5092601;28;20040;-84
2024/01/05 07:30:10;;;;;;;14.30;6.88;;;2.70;99.90;;;;;;5075607;28;20109;-84
2024/01/05 07:32:37;;;;;;;14.32;6.28;;;2.30;99.90;;;;;;5093870;28;20051;-84
2024/01/05 07:35:04;;;;;;;11.57;6.97;;;2.20;99.90;;;;;;5092405;28;20089;-86
2024/01/05 07:37:30;;;;;;;16.83;6.72;;;2.20;99.90;;;;;;5091797;28;20079;-85
2024/01/05 07:39:55;;;;;;;13.52;6.07;;;2.80;99.90;;;;;;5059826;28;20072;-85
2024/01/05 07:42:21;;;;;;;19.50;7.90;;;2.30;99.90;;;;;;5075852;28;20101;-85
2024/01/05 07:44:47;;;;;;;14.05;7.45;;;2.90;99.90;;;;;;5075554;28;20055;-86
2024/01/05 07:47:13;;;;;;;14.05;7.53;;;2.90;99.90;;;;;;5084956;28;20043;-85
2024/01/05 07:49:40;;;;;;;13.98;7.25;;;2.80;99.90;;;;;;5113959;28;20044;-84
2024/01/05 07:52:06;;;;;;;15.02;7.72;;;2.20;99.90;;;;;;5095622;28;20522;-85
2024/01/05 07:54:32;;;;;;;15.45;8.10;;;2.20;99.90;;;;;;5095837;28;20047;-86
2024/01/05 07:56:57;;;;;;;11.68;7.18;;;3.40;99.90;;;;;;5095610;28;20161;-85
2024/01/05 07:59:23;;;;;;;12.45;7.47;;;2.30;99.90;;;;;;5113940;28;20400;-85
2024/01/05 08:01:52;;;;;;;17.02;8.52;;;2.30;99.90;;;;;;5095625;28;20047;-85
2024/01/05 08:04:18;;;;;;;15.10;8.23;;;2.30;99.90;;;;;;5095417;28;20122;-86
2024/01/05 08:06:47;;;;;;;13.52;7.90;;;3.00;99.90;;;;;;5095736;28;20474;-85
2024/01/05 08:09:13;;;;;;;18.00;8.18;;;2.80;99.90;;;;;;5095370;28;20047;-86
2024/01/05 08:11:38;;;;;;;11.90;6.85;;;2.30;99.90;;;;;;5094755;28;20041;-85
2024/01/05 08:14:07;;;;;;;16.17;7.10;;;3.10;99.90;;;;;;5095534;28;20047;-85
2024/01/05 08:16:33;;;;;;;14.05;7.60;;;2.40;99.90;;;;;;5095109;28;20075;-85
2024/01/05 08:18:59;;;;;;;14.02;7.75;;;3.80;99.90;;;;;;5093227;28;20054;-87
2024/01/05 08:21:25;;;;;;;13.15;7.30;;;2.40;99.90;;;;;;5093311;28;20123;-85
2024/01/05 08:23:51;;;;;;;22.25;9.48;;;2.50;99.90;;;;;;5093102;28;20040;-86
2024/01/05 08:26:20;;;;;;;16.98;8.60;;;2.50;99.90;;;;;;5058395;28;20051;-86
2024/01/05 08:28:46;;;;;;;22.20;10.88;;;2.40;99.90;;;;;;5075409;28;20476;-85
2024/01/05 08:31:12;;;;;;;17.80;9.93;;;3.00;99.90;;;;;;5077946;28;20075;-85
2024/01/05 08:33:38;;;;;;;19.95;10.15;;;3.20;99.90;;;;;;5094944;28;20055;-84
2024/01/05 08:36:04;;;;;;;21.58;10.50;;;2.50;99.90;;;;;;5094989;28;20048;-83
2024/01/05 08:38:30;;;;;;;20.77;10.70;;;2.50;99.90;;;;;;5094815;28;20051;-84
2024/01/05 08:40:56;;;;;;;23.70;9.95;;;3.10;99.90;;;;;;5095006;28;20039;-85
2024/01/05 08:43:21;;;;;;;16.88;10.20;;;2.50;99.90;;;;;;5078092;28;20123;-85
2024/01/05 08:45:47;;;;;;;17.92;9.88;;;3.50;99.90;;;;;;5113383;28;20172;-85
2024/01/05 08:48:15;;;;;;;18.83;9.50;;;2.60;99.90;;;;;;5111425;28;20035;-85
2024/01/05 08:50:41;;;;;;;17.73;9.40;;;2.90;99.90;;;;;;5103022;28;20040;-84
2024/01/05 08:53:08;;;;;;;18.05;9.80;;;2.50;99.90;;;;;;5094958;28;20044;-83
2024/01/05 08:55:35;;;;;;;15.45;8.77;;;2.50;99.90;;;;;;5091753;28;20050;-83
2024/01/05 08:58:02;;;;;;;17.77;8.75;;;3.10;99.90;;;;;;5094212;28;20048;-84
2024/01/05 09:00:28;;;;;;;16.88;8.68;;;2.20;99.90;;;;;;5112968;28;20040;-84
2024/01/05 09:02:55;;;;;;;18.15;8.15;;;3.40;99.90;;;;;;5094884;28;20100;-84
2024/01/05 09:05:21;;;;;;;16.33;8.77;;;3.10;99.90;;;;;;5094822;28;20043;-84
2024/01/05 09:07:47;;;;;;;14.40;8.38;;;3.20;99.90;;;;;;5094543;28;20130;-85
2024/01/05 09:10:13;;;;;;;18.17;8.23;;;2.60;99.90;;;;;;5113345;28;20048;-84
2024/01/05 09:12:39;;;;;;;16.63;9.02;;;2.60;99.90;;;;;;5092679;28;20062;-84
2024/01/05 09:15:06;;;;;;;15.52;8.10;;;2.70;99.90;;;;;;5094575;28;20078;-85
2024/01/05 09:17:32;;;;;;;16.73;7.95;;;2.60;99.90;;;;;;5090675;28;20040;-84
2024/01/05 09:19:58;;;;;;;12.65;7.70;;;2.70;99.90;;;;;;5094764;28;20058;-87
2024/01/05 09:22:23;;;;;;;15.38;8.73;;;3.10;99.90;;;;;;5113461;28;20032;-86
2024/01/05 09:24:49;;;;;;;15.40;7.40;;;2.70;99.90;;;;;;5096387;28;20144;-86
2024/01/05 09:27:15;;;;;;;12.52;7.78;;;2.70;99.90;;;;;;5095234;28;20044;-85
2024/01/05 09:29:41;;;;;;;15.45;7.35;;;2.70;99.90;;;;;;5095157;28;20051;-85
2024/01/05 09:32:06;;;;;;;15.00;7.38;;;2.80;99.90;;;;;;5096087;28;20089;-86
2024/01/05 09:34:32;;;;;;;14.88;7.35;;;3.60;99.90;;;;;;5081308;28;20058;-84
2024/01/05 09:36:58;;;;;;;14.98;6.78;;;2.80;99.90;;;;;;5098066;28;20086;-84
2024/01/05 09:39:23;;;;;;;12.13;6.65;;;4.20;99.90;;;;;;5116811;28;20032;-84
2024/01/05 09:41:49;;;;;;;11.90;6.38;;;2.80;99.90;;;;;;5097884;27;20044;-84
2024/01/05 09:44:16;;;;;;;14.35;7.03;;;2.80;99.90;;;;;;5098566;28;20448;-83
2024/01/05 09:46:43;;;;;;;15.05;7.35;;;3.70;99.90;;;;;;5116477;28;20036;-83
2024/01/05 09:49:09;;;;;;;13.35;7.57;;;2.20;99.90;;;;;;5098340;28;20047;-84
2024/01/05 09:51:36;;;;;;;13.77;6.95;;;3.40;99.90;;;;;;5097300;28;20047;-87
2024/01/05 09:54:02;;;;;;;11.55;6.88;;;3.50;99.90;;;;;;5094568;28;20437;-86
2024/01/05 09:56:29;;;;;;;17.58;6.95;;;2.90;99.90;;;;;;5095254;28;20119;-86
2024/01/05 09:58:55;;;;;;;12.10;6.60;;;2.90;99.90;;;;;;5109175;27;20389;-87
2024/01/05 10:01:27;;;;;;;12.60;6.82;;;3.30;99.90;;;;;;5110280;27;20528;-86
2024/01/05 10:03:57;;;;;;;21.10;7.53;;;3.20;99.90;;;;;;5098058;28;20102;-85
2024/01/05 10:06:25;;;;;;;16.63;8.55;;;3.70;99.90;;;;;;5097948;28;20039;-85
2024/01/05 10:09:09;;;;;;;20.15;10.85;;;2.90;99.90;;;;;;5080799;28;20040;-87
2024/01/05 10:11:36;;;;;;;21.67;11.55;;;3.90;99.90;;;;;;5111191;27;20047;-85
2024/01/05 10:14:05;;;;;;;18.35;11.02;;;4.00;99.90;;;;;;5110670;28;20547;-86
2024/01/05 10:16:39;;;;;;;13.30;7.35;;;3.70;99.90;;;;;;5115869;28;20540;-84
2024/01/05 10:19:16;;;;;;;15.07;7.80;;;2.50;99.90;;;;;;5114550;28;20130;-86
2024/01/05 10:21:48;;;;;;;13.68;7.82;;;3.00;99.90;;;;;;5114846;28;20042;-85
2024/01/05 10:24:19;;;;;;;18.35;7.90;;;3.70;99.90;;;;;;5113488;28;20083;-86
2024/01/05 10:26:45;;;;;;;12.32;6.85;;;3.10;99.90;;;;;;5116006;28;20039;-87
2024/01/05 10:29:17;;;;;;;14.05;7.60;;;3.00;99.90;;;;;;5114350;28;20500;-86
2024/01/05 10:31:43;;;;;;;15.75;7.82;;;3.20;99.90;;;;;;5106488;28;20040;-86
2024/01/05 10:34:09;;;;;;;15.35;8.45;;;3.80;99.90;;;;;;5092785;28;20489;-83
2024/01/05 10:36:34;;;;;;;14.23;8.10;;;3.60;99.90;;;;;;5093851;28;20052;-86
2024/01/05 10:39:02;;;;;;;14.82;7.78;;;3.70;99.90;;;;;;5096337;28;20552;-87
2024/01/05 10:41:28;;;;;;;15.90;8.77;;;4.20;99.90;;;;;;5097047;28;20040;-86
2024/01/05 10:43:55;;;;;;;12.45;7.75;;;2.30;99.90;;;;;;5131172;27;20043;-84
2024/01/05 10:46:22;;;;;;;14.10;6.78;;;4.00;99.90;;;;;;5115686;28;20039;-86
2024/01/05 10:48:47;;;;;;;14.50;7.75;;;3.10;99.90;;;;;;5093785;28;20040;-85
2024/01/05 10:51:20;;;;;;;17.35;7.70;;;4.00;99.90;;;;;;5093601;28;20063;-85
2024/01/05 10:53:50;;;;;;;12.30;7.60;;;3.70;99.90;;;;;;5094020;28;20055;-87
2024/01/05 10:56:18;;;;;;;16.02;8.10;;;3.40;99.90;;;;;;5093905;28;20040;-85
2024/01/05 10:58:47;;;;;;;12.85;7.18;;;3.30;99.90;;;;;;5093416;28;20052;-86
2024/01/05 11:01:15;;;;;;;10.73;6.38;;;4.30;99.90;;;;;;5094002;28;20039;-85
2024/01/05 11:03:44;;;;;;;13.27;7.22;;;3.80;99.90;;;;;;5093416;28;20036;-86
2024/01/05 11:06:10;;;;;;;14.55;7.43;;;3.60;99.90;;;;;;5076422;28;20456;-86
2024/01/05 11:08:57;;;;;;;14.45;6.70;;;3.50;99.90;;;;;;5094522;28;20198;-85
2024/01/05 11:11:31;;;;;;;11.93;6.10;;;3.50;99.90;;;;;;5093122;28;20051;-86
2024/01/05 11:14:18;;;;;;;12.20;6.47;;;3.50;99.90;;;;;;5095494;28;20047;-87
2024/01/05 11:17:22;;;;;;;12.50;6.53;;;3.60;99.90;;;;;;5106080;28;20515;-89
2024/01/05 11:20:15;;;;;;;12.63;6.63;;;3.60;99.90;;;;;;5096496;28;20511;-87
2024/01/05 11:22:47;;;;;;;11.80;6.55;;;3.70;99.90;;;;;;5095015;28;20047;-86
2024/01/05 11:25:15;;;;;;;11.25;6.50;;;4.40;99.90;;;;;;5114512;28;20040;-83
2024/01/05 11:27:46;;;;;;;17.63;7.15;;;4.00;99.90;;;;;;5096656;28;20085;-86
2024/01/05 11:30:13;;;;;;;13.13;7.35;;;3.80;99.90;;;;;;5096291;28;20039;-85
2024/01/05 11:32:46;;;;;;;14.23;7.10;;;3.70;99.90;;;;;;5113337;28;20048;-85
2024/01/05 11:35:15;;;;;;;13.02;6.80;;;4.00;99.90;;;;;;5095837;28;20047;-85
2024/01/05 11:37:40;;;;;;;12.10;7.25;;;4.30;99.90;;;;;;5096051;28;20047;-84
2024/01/05 11:40:07;;;;;;;14.05;7.82;;;4.20;99.90;;;;;;5096053;28;20384;-85
2024/01/05 11:42:33;;;;;;;12.88;7.30;;;3.80;99.90;;;;;;5113419;28;20046;-84
2024/01/05 11:45:04;;;;;;;15.65;7.90;;;3.90;99.90;;;;;;5078817;28;20083;-85
2024/01/05 11:47:40;;;;;;;15.75;8.63;;;3.80;99.90;;;;;;5079292;28;20093;-85
2024/01/05 11:50:30;;;;;;;14.73;7.60;;;3.40;99.90;;;;;;5095826;28;20079;-84
2024/01/05 11:53:12;;;;;;;14.90;7.55;;;3.90;99.90;;;;;;5094819;28;20547;-84
2024/01/05 11:55:41;;;;;;;15.77;7.10;;;3.90;99.90;;;;;;5098329;28;20051;-85
2024/01/05 11:58:15;;;;;;;14.27;7.70;;;4.40;99.90;;;;;;5095714;28;20040;-84
2024/01/05 12:00:42;;;;;;;12.80;7.05;;;3.90;99.90;;;;;;5112732;28;20510;-85
2024/01/05 12:03:08;;;;;;;14.43;6.88;;;3.50;99.90;;;;;;5113005;28;20080;-83
2024/01/05 12:05:34;;;;;;;9.98;6.28;;;3.90;99.90;;;;;;5078493;28;20506;-83
2024/01/05 12:08:00;;;;;;;11.73;5.88;;;4.50;99.90;;;;;;5078602;28;20044;-84
2024/01/05 12:10:28;;;;;;;10.05;6.07;;;4.40;99.90;;;;;;5095491;28;20036;-84
2024/01/05 12:12:57;;;;;;;9.85;6.25;;;4.70;99.90;;;;;;5095181;28;20055;-83
2024/01/05 12:15:24;;;;;;;11.93;6.22;;;4.30;99.90;;;;;;5096057;28;20475;-87
2024/01/05 12:18:00;;;;;;;12.35;6.22;;;4.80;99.90;;;;;;5099005;28;20066;-84
2024/01/05 12:20:26;;;;;;;10.73;5.75;;;4.30;99.90;;;;;;5095771;28;20036;-85
2024/01/05 12:22:52;;;;;;;10.80;5.22;;;3.90;99.90;;;;;;5113830;28;20472;-84
2024/01/05 12:25:17;;;;;;;12.15;5.75;;;4.40;99.90;;;;;;5113697;28;20031;-84
2024/01/05 12:27:43;;;;;;;8.25;4.72;;;3.90;99.90;;;;;;5113653;28;20051;-84
2024/01/05 12:30:12;;;;;;;9.40;5.38;;;4.70;99.90;;;;;;5095728;28;20518;-84
2024/01/05 12:32:38;;;;;;;9.27;5.55;;;4.00;99.90;;;;;;5094412;28;20044;-85
2024/01/05 12:35:05;;;;;;;10.35;4.97;;;4.00;99.90;;;;;;5073256;28;20442;-83
2024/01/05 12:37:32;;;;;;;10.77;5.60;;;4.00;99.90;;;;;;5076556;28;20087;-84
2024/01/05 12:40:11;;;;;;;9.65;5.68;;;4.30;99.90;;;;;;5113351;28;20131;-84
2024/01/05 12:42:38;;;;;;;8.13;5.13;;;4.00;99.90;;;;;;5113563;28;20043;-84
2024/01/05 12:45:10;;;;;;;11.35;5.50;;;5.00;99.90;;;;;;5113480;28;20040;-84
2024/01/05 12:47:36;;;;;;;9.68;5.78;;;4.00;99.90;;;;;;5078225;28;20108;-84